Time;durP1;ratioP1;P1;durP2;ratioP2;P2;SDS_P1;SDS_P2;PMS_P1;PMS_P2;Temp;Humidity;BMP_temperature;BMP_pressure;BME280_temperature;BME280_humidity;BME280_pressure;Samples;Min_cycle;Max_cycle;Signal;HPM_P1;HPM_P2
2022/02/14 00:01:13;;;;;;;2.65;1.38;;;20.10;59.60;;;;;;5029892;28;20203;-58
2022/02/14 00:03:44;;;;;;;1.52;1.05;;;20.10;59.60;;;;;;5030322;28;20192;-59
2022/02/14 00:06:15;;;;;;;1.92;1.23;;;20.20;59.60;;;;;;5030036;28;20227;-59
2022/02/14 00:08:46;;;;;;;2.50;1.52;;;20.20;59.60;;;;;;5031092;28;20216;-59
2022/02/14 00:11:16;;;;;;;1.98;1.27;;;20.20;60.30;;;;;;5030193;28;20279;-58
2022/02/14 00:13:49;;;;;;;1.45;1.30;;;20.20;59.60;;;;;;5030859;28;20205;-58
2022/02/14 00:16:20;;;;;;;2.35;1.38;;;20.30;59.70;;;;;;5030279;28;20197;-58
2022/02/14 00:18:50;;;;;;;2.20;1.20;;;20.20;59.70;;;;;;5030374;28;20216;-58
2022/02/14 00:21:21;;;;;;;2.00;1.23;;;20.30;59.80;;;;;;5030254;28;20259;-58
2022/02/14 00:23:51;;;;;;;2.08;1.30;;;20.30;59.80;;;;;;5028415;28;20257;-59
2022/02/14 00:26:22;;;;;;;2.17;1.10;;;20.30;59.80;;;;;;5029900;28;20699;-58
2022/02/14 00:28:55;;;;;;;2.13;1.23;;;20.30;59.90;;;;;;5029461;28;20642;-58
2022/02/14 00:31:25;;;;;;;2.05;1.45;;;20.40;59.90;;;;;;5029945;28;20200;-58
2022/02/14 00:33:58;;;;;;;2.03;1.17;;;20.40;59.90;;;;;;5030532;28;20262;-58
2022/02/14 00:36:29;;;;;;;3.08;1.30;;;20.40;59.90;;;;;;5030681;28;20656;-58
2022/02/14 00:38:59;;;;;;;2.92;1.25;;;20.40;59.90;;;;;;5029646;28;20761;-57
2022/02/14 00:41:30;;;;;;;2.17;1.23;;;20.50;60.00;;;;;;5030300;28;20200;-57
2022/02/14 00:44:02;;;;;;;2.22;1.60;;;20.50;59.90;;;;;;5030172;28;20238;-57
2022/02/14 00:46:33;;;;;;;1.77;1.20;;;20.50;59.90;;;;;;5030414;28;20313;-58
2022/02/14 00:49:04;;;;;;;1.98;1.30;;;20.60;59.90;;;;;;5030924;28;20240;-57
2022/02/14 00:51:35;;;;;;;1.98;1.10;;;20.60;59.90;;;;;;5029977;28;20197;-57
2022/02/14 00:54:05;;;;;;;2.58;1.13;;;20.60;59.90;;;;;;5030193;28;20196;-57
2022/02/14 00:56:36;;;;;;;1.65;1.27;;;20.70;59.90;;;;;;5030562;28;20200;-57
2022/02/14 00:59:09;;;;;;;2.05;1.20;;;20.70;59.90;;;;;;5029890;28;20243;-56
2022/02/14 01:01:39;;;;;;;1.75;1.30;;;20.70;59.80;;;;;;5029088;28;20281;-57
2022/02/14 01:04:10;;;;;;;2.20;1.30;;;20.80;59.80;;;;;;5030191;28;20199;-58
2022/02/14 01:06:41;;;;;;;3.38;1.35;;;20.80;59.80;;;;;;5029796;28;20223;-58
2022/02/14 01:09:12;;;;;;;2.13;1.35;;;20.90;59.60;;;;;;5029634;28;20270;-58
2022/02/14 01:11:42;;;;;;;3.15;1.33;;;20.90;59.30;;;;;;5029716;28;20207;-58
2022/02/14 01:14:15;;;;;;;2.60;1.40;;;21.00;59.40;;;;;;5029028;28;20204;-57
2022/02/14 01:16:46;;;;;;;2.10;1.13;;;21.00;59.40;;;;;;5028405;28;20262;-56
2022/02/14 01:19:17;;;;;;;1.95;1.30;;;21.00;59.40;;;;;;5029746;28;20228;-59
2022/02/14 01:21:47;;;;;;;3.15;1.20;;;21.10;59.40;;;;;;5029006;28;20189;-56
2022/02/14 01:24:18;;;;;;;2.38;1.00;;;21.10;59.50;;;;;;5027918;28;20200;-57
2022/02/14 01:26:48;;;;;;;1.75;0.90;;;21.10;59.30;;;;;;5028343;28;20221;-58
2022/02/14 01:29:21;;;;;;;3.58;1.52;;;21.20;59.40;;;;;;5029018;28;20266;-59
2022/02/14 01:31:52;;;;;;;2.17;1.17;;;21.20;59.40;;;;;;5029198;28;20196;-59
2022/02/14 01:34:22;;;;;;;2.25;1.27;;;21.20;59.30;;;;;;5028151;28;20189;-58
2022/02/14 01:36:53;;;;;;;1.90;0.90;;;21.20;59.30;;;;;;5029040;28;20551;-57
2022/02/14 01:39:25;;;;;;;2.35;1.05;;;21.30;59.30;;;;;;5028531;28;20200;-58
2022/02/14 01:41:56;;;;;;;2.40;1.20;;;21.30;59.30;;;;;;5029048;28;20196;-58
2022/02/14 01:44:41;;;;;;;2.13;1.10;;;21.30;59.20;;;;;;5028694;28;20715;-58
2022/02/14 01:47:15;;;;;;;2.15;1.02;;;21.40;59.30;;;;;;5027211;28;20223;-58
2022/02/14 01:49:46;;;;;;;1.85;1.10;;;21.40;59.30;;;;;;5029141;28;20243;-57
2022/02/14 01:52:17;;;;;;;1.73;1.35;;;21.40;59.20;;;;;;5027846;28;20242;-58
2022/02/14 01:54:49;;;;;;;2.65;1.20;;;21.50;59.20;;;;;;5028734;28;20295;-57
2022/02/14 01:57:21;;;;;;;1.58;1.15;;;21.50;59.20;;;;;;5028139;28;20212;-57
2022/02/14 01:59:54;;;;;;;2.05;1.05;;;21.50;59.10;;;;;;5027962;28;20200;-57
2022/02/14 02:02:25;;;;;;;1.73;1.02;;;21.50;59.10;;;;;;5028675;28;20247;-58
2022/02/14 02:04:55;;;;;;;2.72;1.00;;;21.60;59.10;;;;;;5027413;28;20536;-57
2022/02/14 02:07:26;;;;;;;2.22;1.10;;;21.60;59.10;;;;;;5028398;28;20228;-57
2022/02/14 02:09:57;;;;;;;2.00;1.00;;;21.60;59.10;;;;;;5028259;28;20199;-57
2022/02/14 02:12:28;;;;;;;1.85;1.08;;;21.60;59.10;;;;;;5028226;28;20200;-57
2022/02/14 02:15:01;;;;;;;2.25;1.30;;;21.70;59.10;;;;;;5027691;28;20235;-57
2022/02/14 02:17:34;;;;;;;1.27;0.82;;;21.70;58.90;;;;;;5027329;28;20660;-57
2022/02/14 02:20:05;;;;;;;0.80;0.77;;;21.70;58.80;;;;;;5028064;28;20195;-57
2022/02/14 02:22:37;;;;;;;2.22;1.00;;;21.70;58.70;;;;;;5027656;28;20287;-58
2022/02/14 02:25:10;;;;;;;2.10;0.73;;;21.80;58.70;;;;;;5028501;28;20295;-65
2022/02/14 02:27:42;;;;;;;1.17;0.80;;;21.80;58.90;;;;;;5027718;28;20308;-58
2022/02/14 02:30:17;;;;;;;1.17;1.00;;;21.90;59.60;;;;;;5027818;28;20188;-57
2022/02/14 02:32:48;;;;;;;0.90;0.70;;;21.90;59.10;;;;;;5027794;28;20203;-57
2022/02/14 02:35:19;;;;;;;1.35;0.82;;;22.00;59.10;;;;;;5027502;28;20203;-57
2022/02/14 02:37:50;;;;;;;2.38;0.80;;;22.00;59.10;;;;;;5028029;28;20212;-58
2022/02/14 02:40:22;;;;;;;1.45;0.90;;;22.00;59.00;;;;;;5028011;28;20196;-57
2022/02/14 02:42:53;;;;;;;2.15;0.80;;;22.00;58.90;;;;;;5028156;28;20211;-57
2022/02/14 02:45:24;;;;;;;1.38;1.05;;;22.10;58.70;;;;;;5028432;28;20198;-57
2022/02/14 02:47:57;;;;;;;1.58;0.80;;;22.10;58.50;;;;;;5027631;28;20290;-58
2022/02/14 02:50:28;;;;;;;1.10;0.95;;;22.10;58.30;;;;;;5028736;28;20196;-57
2022/02/14 02:52:59;;;;;;;1.30;0.85;;;22.20;58.20;;;;;;5028664;28;20255;-58
2022/02/14 02:55:31;;;;;;;1.42;0.90;;;22.20;58.20;;;;;;5025789;28;20227;-58
2022/02/14 02:58:02;;;;;;;1.73;0.70;;;22.20;58.00;;;;;;5028114;28;20754;-57
2022/02/14 03:00:32;;;;;;;2.08;0.80;;;22.20;58.10;;;;;;5027230;28;20228;-57
2022/02/14 03:03:07;;;;;;;1.25;0.88;;;22.30;58.20;;;;;;5027676;28;20652;-58
2022/02/14 03:05:38;;;;;;;1.33;0.80;;;22.30;58.10;;;;;;5027830;28;20210;-57
2022/02/14 03:08:08;;;;;;;0.82;0.60;;;22.30;58.00;;;;;;5026829;28;20228;-58
2022/02/14 03:10:41;;;;;;;1.38;0.85;;;22.40;58.00;;;;;;5027532;28;20267;-59
2022/02/14 03:13:11;;;;;;;2.28;1.20;;;22.40;57.90;;;;;;5028044;28;20204;-59
2022/02/14 03:15:42;;;;;;;1.33;0.80;;;22.50;57.80;;;;;;5027903;28;20196;-57
2022/02/14 03:18:13;;;;;;;1.15;0.80;;;22.50;57.60;;;;;;5031956;28;20224;-57
2022/02/14 03:20:43;;;;;;;1.08;0.80;;;22.50;57.50;;;;;;5031623;28;20203;-57
2022/02/14 03:23:14;;;;;;;1.92;0.90;;;22.60;57.40;;;;;;5031483;28;20255;-57
2022/02/14 03:25:46;;;;;;;1.77;0.77;;;22.60;57.20;;;;;;5031454;28;20242;-58
2022/02/14 03:28:17;;;;;;;1.88;0.85;;;22.60;57.10;;;;;;5030712;28;20239;-58
2022/02/14 03:30:48;;;;;;;0.68;0.68;;;22.70;57.10;;;;;;5031021;28;20247;-58
2022/02/14 03:33:19;;;;;;;1.13;0.90;;;22.70;57.10;;;;;;5030780;28;20204;-58
2022/02/14 03:35:50;;;;;;;1.58;0.80;;;22.70;56.80;;;;;;5030161;28;20196;-58
2022/02/14 03:38:21;;;;;;;2.70;1.10;;;22.80;56.70;;;;;;5030319;28;20228;-57
2022/02/14 03:40:53;;;;;;;0.75;0.65;;;22.80;56.70;;;;;;5030881;28;20204;-57
2022/02/14 03:43:24;;;;;;;1.00;0.82;;;22.90;56.80;;;;;;5030177;28;20219;-58
2022/02/14 03:45:54;;;;;;;1.08;0.77;;;22.90;56.70;;;;;;5030935;28;20243;-58
2022/02/14 03:48:25;;;;;;;0.80;0.80;;;22.90;56.70;;;;;;5031180;28;20231;-58
2022/02/14 03:50:56;;;;;;;2.55;1.05;;;22.90;56.40;;;;;;5030794;28;20199;-58
2022/02/14 03:53:27;;;;;;;1.80;0.80;;;23.00;56.40;;;;;;5030649;28;20200;-57
2022/02/14 03:56:00;;;;;;;1.27;0.73;;;23.00;56.40;;;;;;5030479;28;20196;-58
2022/02/14 03:58:30;;;;;;;2.17;0.90;;;23.00;56.40;;;;;;5030776;28;20208;-57
2022/02/14 04:01:01;;;;;;;1.20;0.73;;;23.10;56.10;;;;;;5030248;28;20220;-58
2022/02/14 04:03:32;;;;;;;1.33;0.80;;;23.20;56.10;;;;;;5029095;28;20242;-58
2022/02/14 04:06:02;;;;;;;1.15;0.80;;;23.10;56.10;;;;;;5030569;28;20246;-58
2022/02/14 04:08:33;;;;;;;1.00;0.80;;;23.20;56.00;;;;;;5030355;28;20687;-58
2022/02/14 04:11:05;;;;;;;1.13;0.80;;;23.30;56.00;;;;;;5030770;28;20192;-58
2022/02/14 04:13:36;;;;;;;1.42;0.90;;;23.30;55.70;;;;;;5030686;28;20208;-58
2022/02/14 04:16:07;;;;;;;0.90;0.68;;;23.30;55.60;;;;;;5029407;28;20258;-57
2022/02/14 04:18:38;;;;;;;1.60;0.90;;;23.40;55.50;;;;;;5030130;28;20766;-60
2022/02/14 04:21:08;;;;;;;0.93;0.60;;;23.40;55.30;;;;;;5030310;28;20199;-59
2022/02/14 04:23:39;;;;;;;0.60;0.60;;;23.40;55.10;;;;;;5030244;28;20200;-59
2022/02/14 04:26:12;;;;;;;1.15;0.75;;;23.40;55.30;;;;;;5029550;28;20200;-58
2022/02/14 04:28:42;;;;;;;0.90;0.70;;;23.50;55.20;;;;;;5029353;28;20224;-57
2022/02/14 04:31:13;;;;;;;1.25;0.80;;;23.50;55.00;;;;;;5030626;28;20192;-57
2022/02/14 04:33:43;;;;;;;1.63;0.70;;;23.50;54.90;;;;;;5029641;28;20550;-57
2022/02/14 04:36:14;;;;;;;1.00;0.88;;;23.60;54.90;;;;;;5029853;28;20270;-57
2022/02/14 04:38:45;;;;;;;1.35;0.85;;;23.50;54.70;;;;;;5030516;28;20579;-57
2022/02/14 04:41:17;;;;;;;1.65;0.80;;;23.60;54.80;;;;;;5030156;28;20196;-56
2022/02/14 04:43:48;;;;;;;0.82;0.70;;;23.70;54.80;;;;;;5029440;28;20192;-57
2022/02/14 04:46:18;;;;;;;0.95;0.50;;;23.70;54.70;;;;;;5029468;28;20648;-58
2022/02/14 04:48:49;;;;;;;1.00;0.90;;;23.70;54.60;;;;;;5029884;28;20606;-57
2022/02/14 04:51:19;;;;;;;1.20;0.82;;;23.70;54.60;;;;;;5030065;28;20605;-59
2022/02/14 04:53:50;;;;;;;0.70;0.60;;;23.80;54.60;;;;;;5029584;28;20620;-58
2022/02/14 04:56:23;;;;;;;0.65;0.63;;;23.80;54.60;;;;;;5029277;28;20254;-58
2022/02/14 04:58:53;;;;;;;0.88;0.70;;;23.80;54.50;;;;;;5029122;28;20227;-57
2022/02/14 05:01:24;;;;;;;0.73;0.68;;;23.80;54.30;;;;;;5028911;28;20203;-59
2022/02/14 05:03:56;;;;;;;1.05;0.65;;;23.90;54.30;;;;;;5029224;28;21525;-59
2022/02/14 05:06:26;;;;;;;1.02;0.60;;;23.90;54.20;;;;;;5029634;28;20241;-57
2022/02/14 05:08:57;;;;;;;1.08;0.60;;;23.90;54.10;;;;;;5029141;28;20687;-57
2022/02/14 05:11:29;;;;;;;0.75;0.70;;;23.90;54.00;;;;;;5029470;28;20258;-58
2022/02/14 05:14:00;;;;;;;0.50;0.50;;;23.90;53.90;;;;;;5029270;28;20672;-57
2022/02/14 05:16:30;;;;;;;1.80;0.65;;;24.00;53.90;;;;;;5028081;28;20254;-58
2022/02/14 05:19:01;;;;;;;1.02;0.60;;;24.00;53.90;;;;;;5029809;28;20212;-58
2022/02/14 05:21:32;;;;;;;1.33;0.73;;;24.00;53.80;;;;;;5029006;28;20196;-58
2022/02/14 05:24:02;;;;;;;1.17;0.85;;;24.00;53.70;;;;;;5029455;28;20198;-58
2022/02/14 05:26:35;;;;;;;1.20;0.63;;;24.00;53.70;;;;;;5027939;28;20199;-58
2022/02/14 05:29:05;;;;;;;1.00;0.88;;;24.00;54.40;;;;;;5028647;28;20663;-59
2022/02/14 05:31:36;;;;;;;0.57;0.50;;;24.10;53.80;;;;;;5028906;28;20204;-58
2022/02/14 05:34:07;;;;;;;2.05;0.60;;;24.00;53.70;;;;;;5029227;28;20698;-57
2022/02/14 05:36:38;;;;;;;0.80;0.70;;;24.10;53.80;;;;;;5029090;28;20204;-57
2022/02/14 05:39:09;;;;;;;0.95;0.70;;;24.10;53.60;;;;;;5028782;28;20726;-59
2022/02/14 05:41:41;;;;;;;2.03;0.90;;;24.10;53.70;;;;;;5028630;28;20204;-59
2022/02/14 05:44:12;;;;;;;2.30;0.90;;;24.10;53.70;;;;;;5028687;28;20634;-57
2022/02/14 05:46:42;;;;;;;1.08;0.73;;;24.10;53.60;;;;;;5028490;28;20204;-58
2022/02/14 05:49:13;;;;;;;1.60;0.60;;;24.10;53.50;;;;;;5028167;28;20757;-58
2022/02/14 05:51:44;;;;;;;1.73;0.70;;;24.20;53.50;;;;;;5028557;28;20246;-58
2022/02/14 05:54:14;;;;;;;1.58;0.90;;;24.20;53.30;;;;;;5029019;28;20261;-59
2022/02/14 05:56:47;;;;;;;2.03;1.20;;;24.20;53.30;;;;;;5028627;28;20197;-58
2022/02/14 05:59:17;;;;;;;2.30;1.27;;;24.20;53.30;;;;;;5027740;28;20216;-58
2022/02/14 06:01:48;;;;;;;1.83;0.70;;;24.20;53.20;;;;;;5028355;28;20195;-58
2022/02/14 06:04:18;;;;;;;0.90;0.75;;;24.20;53.60;;;;;;5028790;28;20192;-58
2022/02/14 06:06:49;;;;;;;3.72;1.20;;;24.20;53.30;;;;;;5028325;28;20193;-58
2022/02/14 06:09:20;;;;;;;1.42;0.70;;;24.20;53.30;;;;;;5028126;28;20228;-58
2022/02/14 06:11:52;;;;;;;2.45;1.13;;;24.20;53.50;;;;;;5028852;28;20249;-58
2022/02/14 06:14:23;;;;;;;2.05;0.90;;;24.20;53.40;;;;;;5027928;28;20246;-58
2022/02/14 06:16:54;;;;;;;2.42;0.90;;;24.20;53.20;;;;;;5028718;28;20652;-59
2022/02/14 06:19:24;;;;;;;2.17;0.98;;;24.20;53.30;;;;;;5043635;28;20219;-57
2022/02/14 06:21:55;;;;;;;2.00;0.90;;;24.20;53.40;;;;;;5049445;28;20333;-57
2022/02/14 06:24:25;;;;;;;1.95;1.10;;;24.20;53.40;;;;;;5032524;28;20262;-58
2022/02/14 06:26:58;;;;;;;1.40;0.90;;;24.20;53.30;;;;;;5029932;28;20192;-58
2022/02/14 06:29:28;;;;;;;1.95;1.00;;;24.20;53.30;;;;;;5028151;28;20224;-58
2022/02/14 06:31:59;;;;;;;2.38;1.08;;;24.20;53.40;;;;;;5029762;28;20203;-58
2022/02/14 06:34:30;;;;;;;1.63;0.93;;;24.20;53.10;;;;;;5029351;28;20188;-59
2022/02/14 06:37:00;;;;;;;2.17;1.02;;;24.20;53.20;;;;;;5029536;28;20211;-59
2022/02/14 06:39:31;;;;;;;1.63;0.80;;;24.20;53.20;;;;;;5029316;28;20224;-59
2022/02/14 06:42:03;;;;;;;2.33;0.95;;;24.10;53.00;;;;;;5029706;28;20250;-58
2022/02/14 06:44:38;;;;;;;1.35;0.80;;;24.20;53.20;;;;;;5029908;28;20554;-57
2022/02/14 06:47:09;;;;;;;1.67;0.90;;;24.20;53.20;;;;;;5029736;28;20558;-58
2022/02/14 06:49:39;;;;;;;3.65;1.30;;;24.10;53.80;;;;;;5029144;28;20542;-58
2022/02/14 06:52:10;;;;;;;2.20;1.10;;;24.10;53.20;;;;;;5032560;28;20204;-58
2022/02/14 06:54:41;;;;;;;2.90;1.08;;;24.10;53.20;;;;;;5033547;28;20196;-59
2022/02/14 06:57:13;;;;;;;2.80;0.98;;;24.10;53.30;;;;;;5033224;28;20196;-58
2022/02/14 06:59:44;;;;;;;2.42;1.10;;;24.10;53.20;;;;;;5032985;28;20196;-59
2022/02/14 07:02:15;;;;;;;1.52;1.10;;;24.00;53.20;;;;;;5033278;28;20289;-58
2022/02/14 07:04:45;;;;;;;1.58;1.08;;;24.00;53.20;;;;;;5032745;28;20196;-58
2022/02/14 07:07:19;;;;;;;2.40;0.98;;;24.00;53.30;;;;;;5033018;28;20548;-59
2022/02/14 07:09:50;;;;;;;2.53;1.00;;;24.00;53.30;;;;;;5032936;28;20221;-59
2022/02/14 07:12:22;;;;;;;2.38;1.10;;;24.00;54.00;;;;;;5033056;28;20196;-59
2022/02/14 07:14:53;;;;;;;2.33;1.17;;;24.00;53.40;;;;;;5033051;28;20230;-58
2022/02/14 07:17:24;;;;;;;3.85;1.27;;;23.90;53.50;;;;;;5032987;28;20261;-58
2022/02/14 07:19:54;;;;;;;1.25;1.05;;;23.90;53.50;;;;;;5032231;28;20196;-58
2022/02/14 07:22:25;;;;;;;5.03;1.67;;;23.90;53.50;;;;;;5032936;28;20200;-47
2022/02/14 07:24:55;;;;;;;5.97;1.80;;;23.90;52.80;;;;;;5033221;28;20192;-61
2022/02/14 07:27:28;;;;;;;9.20;1.80;;;23.70;50.00;;;;;;5032801;28;20231;-59
2022/02/14 07:29:58;;;;;;;8.32;1.92;;;23.50;50.90;;;;;;5032527;28;20196;-59
2022/02/14 07:32:29;;;;;;;6.88;1.60;;;23.40;51.30;;;;;;5032982;28;20204;-59
2022/02/14 07:34:59;;;;;;;9.65;1.70;;;23.40;51.70;;;;;;5029193;28;20212;-60
2022/02/14 07:37:30;;;;;;;4.90;1.40;;;23.40;51.90;;;;;;5032567;28;20207;-60
2022/02/14 07:40:01;;;;;;;6.38;1.55;;;23.30;52.20;;;;;;5032216;28;20200;-60
2022/02/14 07:42:33;;;;;;;5.97;1.50;;;23.30;52.30;;;;;;5032555;28;20192;-59
2022/02/14 07:45:05;;;;;;;7.80;1.95;;;23.30;52.50;;;;;;5032643;28;20317;-59
2022/02/14 07:47:36;;;;;;;5.45;1.88;;;23.20;52.70;;;;;;5032315;28;20204;-59
2022/02/14 07:50:11;;;;;;;7.53;2.13;;;23.20;53.00;;;;;;5032185;28;20196;-59
2022/02/14 07:52:42;;;;;;;6.20;2.00;;;23.20;53.20;;;;;;5024719;28;20274;-59
2022/02/14 07:55:13;;;;;;;7.53;1.60;;;23.20;53.40;;;;;;5031301;28;20239;-59
2022/02/14 07:57:45;;;;;;;8.65;2.00;;;23.20;53.50;;;;;;5030723;28;20227;-59
2022/02/14 08:00:17;;;;;;;6.10;2.05;;;23.20;53.70;;;;;;5029717;28;20207;-59
2022/02/14 08:02:47;;;;;;;7.72;2.10;;;23.20;53.70;;;;;;5029907;28;20204;-58
2022/02/14 08:05:18;;;;;;;7.70;2.17;;;23.10;53.80;;;;;;5029414;28;20196;-59
2022/02/14 08:07:49;;;;;;;9.48;2.70;;;23.10;54.00;;;;;;5030396;28;20216;-58
2022/02/14 08:10:20;;;;;;;6.10;2.13;;;23.10;54.10;;;;;;5030708;28;20200;-58
2022/02/14 08:12:52;;;;;;;7.22;2.45;;;23.10;54.20;;;;;;5030360;28;20250;-58
2022/02/14 08:15:23;;;;;;;6.15;2.00;;;23.10;54.20;;;;;;5030613;28;20246;-59
2022/02/14 08:17:53;;;;;;;5.07;2.10;;;23.00;54.20;;;;;;5030826;28;20270;-60
2022/02/14 08:20:24;;;;;;;6.53;2.42;;;23.00;54.20;;;;;;5030133;28;20255;-59
2022/02/14 08:22:54;;;;;;;4.72;2.25;;;23.00;54.20;;;;;;5030593;28;20246;-58
2022/02/14 08:25:25;;;;;;;7.57;2.70;;;23.00;54.30;;;;;;5030454;28;20196;-60
2022/02/14 08:27:58;;;;;;;5.68;2.60;;;23.00;54.30;;;;;;5030015;28;20216;-59
2022/02/14 08:30:28;;;;;;;5.53;2.30;;;23.00;54.40;;;;;;5029607;28;20192;-59
2022/02/14 08:32:59;;;;;;;5.35;2.10;;;23.00;54.50;;;;;;5029632;28;20223;-60
2022/02/14 08:35:30;;;;;;;10.15;2.83;;;22.90;54.40;;;;;;5029448;28;20204;-59
2022/02/14 08:38:00;;;;;;;4.93;2.72;;;22.90;54.50;;;;;;5028359;28;20220;-59
2022/02/14 08:40:31;;;;;;;5.18;2.75;;;22.90;54.60;;;;;;5029693;28;20266;-58
2022/02/14 08:43:04;;;;;;;5.50;2.42;;;22.90;54.60;;;;;;5029423;28;20258;-59
2022/02/14 08:45:35;;;;;;;7.05;2.78;;;22.90;54.70;;;;;;5030278;28;20266;-59
2022/02/14 08:48:06;;;;;;;6.63;2.70;;;22.90;54.80;;;;;;5029900;28;20219;-59
2022/02/14 08:50:40;;;;;;;4.80;2.38;;;22.80;54.80;;;;;;5028944;28;20204;-59
2022/02/14 08:53:11;;;;;;;6.97;2.65;;;22.80;54.80;;;;;;5029979;28;20246;-60
2022/02/14 08:55:42;;;;;;;5.47;2.40;;;22.80;54.90;;;;;;5028925;28;20196;-59
2022/02/14 08:58:14;;;;;;;4.53;2.38;;;22.80;55.00;;;;;;5029477;28;20220;-58
2022/02/14 09:00:45;;;;;;;5.10;2.83;;;22.80;55.00;;;;;;5028775;28;20246;-59
2022/02/14 09:03:15;;;;;;;6.65;2.83;;;22.80;55.00;;;;;;5029088;28;20766;-59
2022/02/14 09:05:46;;;;;;;6.78;2.60;;;22.70;54.90;;;;;;5029358;28;20251;-58
2022/02/14 09:08:17;;;;;;;4.22;2.45;;;22.70;54.90;;;;;;5029606;28;20231;-59
2022/02/14 09:10:47;;;;;;;5.57;2.42;;;22.70;54.90;;;;;;5029396;28;20197;-58
2022/02/14 09:13:20;;;;;;;3.92;2.42;;;22.60;54.90;;;;;;5029534;28;20192;-59
2022/02/14 09:15:50;;;;;;;6.47;2.92;;;22.60;54.90;;;;;;5029600;28;20262;-58
2022/02/14 09:18:21;;;;;;;5.07;2.80;;;22.60;54.90;;;;;;5029778;28;20293;-59
2022/02/14 09:20:52;;;;;;;7.03;2.40;;;22.60;55.00;;;;;;5029548;28;20196;-59
2022/02/14 09:23:22;;;;;;;5.82;2.35;;;22.50;55.00;;;;;;5028583;28;20200;-59
2022/02/14 09:25:53;;;;;;;4.93;2.30;;;22.50;55.00;;;;;;5029335;28;20192;-59
2022/02/14 09:28:26;;;;;;;5.80;2.50;;;22.50;55.00;;;;;;5028254;28;20296;-58
2022/02/14 09:30:57;;;;;;;3.97;2.00;;;22.40;55.00;;;;;;5029013;28;20200;-58
2022/02/14 09:33:27;;;;;;;4.18;2.40;;;22.40;55.10;;;;;;5028795;28;20188;-58
2022/02/14 09:35:58;;;;;;;7.68;2.17;;;22.40;55.10;;;;;;5028203;28;20334;-59
2022/02/14 09:38:29;;;;;;;5.75;2.72;;;22.40;55.10;;;;;;5028478;28;20278;-59
2022/02/14 09:41:01;;;;;;;3.38;2.08;;;22.40;55.20;;;;;;5028574;28;20192;-59
2022/02/14 09:43:36;;;;;;;6.10;2.72;;;22.30;55.20;;;;;;5027654;28;20200;-58
2022/02/14 09:46:09;;;;;;;3.60;2.22;;;22.30;55.20;;;;;;5028402;28;20278;-58
2022/02/14 09:48:42;;;;;;;5.38;2.50;;;22.30;55.20;;;;;;5028407;28;20231;-59
2022/02/14 09:51:15;;;;;;;5.40;2.65;;;22.30;55.10;;;;;;5028108;28;20258;-59
2022/02/14 09:53:46;;;;;;;4.53;2.30;;;22.20;55.00;;;;;;5028265;28;20200;-59
2022/02/14 09:56:17;;;;;;;5.05;2.13;;;22.20;55.70;;;;;;5028514;28;20192;-59
2022/02/14 09:58:49;;;;;;;4.72;2.15;;;22.20;55.10;;;;;;5029011;28;20224;-58
2022/02/14 10:01:20;;;;;;;4.35;2.58;;;22.20;55.10;;;;;;5028884;28;20215;-59
2022/02/14 10:03:56;;;;;;;4.78;2.33;;;22.20;55.20;;;;;;5028861;28;20260;-58
2022/02/14 10:06:31;;;;;;;5.05;2.55;;;22.10;55.20;;;;;;5028799;28;20834;-58
2022/02/14 10:09:15;;;;;;;4.75;2.20;;;22.10;55.20;;;;;;5027606;28;20242;-59
2022/02/14 10:12:01;;;;;;;4.45;2.30;;;22.10;55.20;;;;;;5027671;28;20204;-58
2022/02/14 10:14:34;;;;;;;4.25;2.08;;;22.00;55.10;;;;;;5028310;28;20562;-59
2022/02/14 10:17:08;;;;;;;3.20;2.10;;;22.00;55.20;;;;;;5028672;28;20204;-59
2022/02/14 10:19:39;;;;;;;2.95;1.80;;;22.00;55.80;;;;;;5027881;28;20208;-59
2022/02/14 10:22:12;;;;;;;4.10;2.42;;;22.00;55.20;;;;;;5028038;28;20188;-59
2022/02/14 10:24:43;;;;;;;3.58;1.83;;;21.90;55.20;;;;;;5027962;28;20253;-59
2022/02/14 10:27:15;;;;;;;3.47;1.95;;;21.90;55.20;;;;;;5032117;28;20200;-59
2022/02/14 10:29:48;;;;;;;4.47;1.70;;;21.90;55.20;;;;;;5032432;28;20303;-59
2022/02/14 10:32:20;;;;;;;5.13;2.35;;;21.90;55.20;;;;;;5031645;28;20242;-58
2022/02/14 10:34:53;;;;;;;3.78;1.70;;;21.90;55.30;;;;;;5031530;28;20293;-58
2022/02/14 10:37:39;;;;;;;3.88;1.90;;;21.90;55.30;;;;;;5032149;28;20192;-59
2022/02/14 10:40:11;;;;;;;2.58;1.83;;;21.80;55.20;;;;;;5032171;28;20196;-59
2022/02/14 10:42:42;;;;;;;5.63;2.33;;;21.80;55.20;;;;;;5031769;28;20286;-59
2022/02/14 10:45:16;;;;;;;4.57;2.05;;;21.80;55.30;;;;;;5031782;28;20196;-59
2022/02/14 10:47:47;;;;;;;4.38;1.95;;;21.70;55.30;;;;;;5031387;28;20719;-60
2022/02/14 10:50:19;;;;;;;5.05;2.10;;;21.70;55.30;;;;;;5031725;28;20231;-59
2022/02/14 10:52:52;;;;;;;2.55;1.83;;;21.70;56.00;;;;;;5031572;28;20974;-58
2022/02/14 10:55:26;;;;;;;2.92;1.70;;;21.70;55.40;;;;;;5032109;28;20200;-58
2022/02/14 10:57:58;;;;;;;2.50;1.63;;;21.70;55.40;;;;;;5031248;28;20587;-59
2022/02/14 11:00:32;;;;;;;4.00;1.90;;;21.60;55.30;;;;;;5031948;28;20192;-59
2022/02/14 11:03:06;;;;;;;4.15;2.13;;;21.60;56.00;;;;;;5031699;28;20207;-58
2022/02/14 11:05:40;;;;;;;3.90;1.90;;;21.60;55.40;;;;;;5033565;28;20214;-59
2022/02/14 11:08:12;;;;;;;2.88;1.70;;;21.60;55.40;;;;;;5031519;28;20211;-58
2022/02/14 11:10:46;;;;;;;3.15;1.50;;;21.50;55.30;;;;;;5031493;28;20232;-58
2022/02/14 11:13:17;;;;;;;4.18;1.83;;;21.50;55.30;;;;;;5031409;28;20219;-59
2022/02/14 11:15:55;;;;;;;3.10;1.55;;;21.50;55.40;;;;;;5031169;28;20589;-59
2022/02/14 11:18:31;;;;;;;3.08;1.90;;;21.50;55.40;;;;;;5032100;28;20219;-59
2022/02/14 11:21:06;;;;;;;3.22;1.83;;;21.50;55.30;;;;;;5031721;28;20195;-59
2022/02/14 11:23:43;;;;;;;2.40;1.55;;;21.40;55.30;;;;;;5031714;28;20594;-59
2022/02/14 11:26:23;;;;;;;4.05;1.52;;;21.40;55.30;;;;;;5030768;28;20200;-59
2022/02/14 11:29:09;;;;;;;3.13;1.70;;;21.40;55.40;;;;;;5030695;28;20298;-59
2022/02/14 11:31:42;;;;;;;2.28;1.48;;;21.40;55.40;;;;;;5029496;28;20211;-58
2022/02/14 11:34:12;;;;;;;2.60;1.70;;;21.40;55.40;;;;;;5031293;28;20200;-58
2022/02/14 11:36:43;;;;;;;2.50;1.65;;;21.30;55.40;;;;;;5030615;28;20193;-58
2022/02/14 11:39:16;;;;;;;2.55;1.60;;;21.30;55.40;;;;;;5031336;28;20220;-59
2022/02/14 11:41:47;;;;;;;2.67;1.48;;;21.30;55.40;;;;;;5031474;28;20192;-60
2022/02/14 11:44:22;;;;;;;2.70;1.65;;;21.20;55.50;;;;;;5031084;28;20193;-59
2022/02/14 11:47:14;;;;;;;2.92;1.70;;;21.20;55.50;;;;;;5030434;28;20204;-58
2022/02/14 11:49:45;;;;;;;2.35;1.45;;;21.20;55.50;;;;;;5031497;28;20605;-59
2022/02/14 11:52:38;;;;;;;2.15;1.70;;;21.20;55.50;;;;;;5030534;28;20193;-58
2022/02/14 11:55:10;;;;;;;2.67;1.30;;;21.10;55.50;;;;;;5030833;28;20203;-59
2022/02/14 11:57:45;;;;;;;3.53;1.50;;;21.10;55.50;;;;;;5032855;28;20652;-59
2022/02/14 12:00:27;;;;;;;2.75;1.45;;;21.10;55.40;;;;;;5034203;28;20195;-59
2022/02/14 12:03:15;;;;;;;2.92;1.58;;;21.10;55.50;;;;;;5032729;28;20192;-59
2022/02/14 12:05:48;;;;;;;2.38;1.52;;;21.00;55.50;;;;;;5032404;28;20697;-59
2022/02/14 12:08:20;;;;;;;4.00;1.67;;;21.00;55.50;;;;;;5032220;28;20684;-58
2022/02/14 12:10:55;;;;;;;2.95;1.60;;;21.00;55.50;;;;;;5032352;28;20250;-58
2022/02/14 12:13:27;;;;;;;2.65;1.52;;;21.00;55.50;;;;;;5031818;28;20207;-58
2022/02/14 12:21:51;;;;;;;2.15;1.40;;;20.90;55.50;;;;;;5032200;28;20199;-59
2022/02/14 12:24:23;;;;;;;2.38;1.50;;;20.90;55.50;;;;;;5028634;28;20244;-60
2022/02/14 12:26:58;;;;;;;2.97;1.45;;;20.90;55.50;;;;;;5031344;28;20252;-60
2022/02/14 12:29:35;;;;;;;2.53;1.40;;;20.90;55.60;;;;;;5031715;28;20234;-60
2022/02/14 12:32:10;;;;;;;2.08;1.45;;;20.80;55.60;;;;;;5031683;28;20207;-60
2022/02/14 12:34:43;;;;;;;2.05;1.33;;;20.80;55.60;;;;;;5031926;28;20261;-58
2022/02/14 12:37:16;;;;;;;2.17;1.40;;;20.80;55.60;;;;;;5032099;28;20643;-59
2022/02/14 12:39:49;;;;;;;3.13;1.67;;;20.70;55.70;;;;;;5031278;28;20262;-59
2022/02/14 12:42:23;;;;;;;1.75;1.33;;;20.70;55.70;;;;;;5031209;28;20199;-59
2022/02/14 12:44:54;;;;;;;2.05;1.30;;;20.70;55.70;;;;;;5031582;28;20593;-59
2022/02/14 12:47:27;;;;;;;1.52;1.20;;;20.70;55.70;;;;;;5031659;28;20197;-59
2022/02/14 12:50:14;;;;;;;1.85;1.20;;;20.70;55.70;;;;;;5030868;28;20227;-59
2022/02/14 12:52:47;;;;;;;2.03;1.30;;;20.60;55.60;;;;;;5031353;28;20245;-58
2022/02/14 12:55:19;;;;;;;2.35;1.30;;;20.60;55.60;;;;;;5031136;28;20588;-60
2022/02/14 12:57:52;;;;;;;1.30;0.95;;;20.60;55.60;;;;;;5030898;28;20625;-59
2022/02/14 13:00:34;;;;;;;1.90;1.33;;;20.60;55.70;;;;;;5031134;28;20191;-60
2022/02/14 13:03:06;;;;;;;3.70;1.48;;;20.60;55.70;;;;;;5031277;28;20199;-59
2022/02/14 13:05:38;;;;;;;2.75;1.55;;;20.50;55.70;;;;;;5031420;28;20795;-59
2022/02/14 13:08:20;;;;;;;2.53;1.15;;;20.50;55.70;;;;;;5030839;28;20227;-59
2022/02/14 13:10:52;;;;;;;2.17;1.33;;;20.50;55.80;;;;;;5030671;28;20224;-59
2022/02/14 13:13:34;;;;;;;2.85;1.58;;;20.50;55.80;;;;;;5030738;28;20283;-59
2022/02/14 13:16:07;;;;;;;1.85;1.30;;;20.50;55.80;;;;;;5031244;28;20200;-58
2022/02/14 13:18:46;;;;;;;2.28;1.40;;;20.40;55.80;;;;;;5031464;28;20235;-59